Time;durP1;ratioP1;P1;durP2;ratioP2;P2;SDS_P1;SDS_P2;PMS_P1;PMS_P2;Temp;Humidity;BMP_temperature;BMP_pressure;BME280_temperature;BME280_humidity;BME280_pressure;Samples;Min_cycle;Max_cycle;Signal;HPM_P1;HPM_P2
2023/09/18 00:00:11;;;;;;;1999.90;999.90;;;20.80;99.90;;;;;;5090590;28;20426;-74
2023/09/18 00:02:38;;;;;;;1999.90;999.90;;;20.80;99.90;;;;;;5088975;28;20432;-72
2023/09/18 00:05:05;;;;;;;1999.90;999.90;;;20.80;99.90;;;;;;5089287;28;20422;-72
2023/09/18 00:07:32;;;;;;;1999.90;999.90;;;20.90;99.90;;;;;;5086656;28;20426;-72
2023/09/18 00:09:58;;;;;;;1999.90;999.90;;;21.00;99.90;;;;;;5086202;28;20429;-74
2023/09/18 00:12:25;;;;;;;1999.90;999.90;;;21.30;99.90;;;;;;5087766;28;20437;-74
2023/09/18 00:14:52;;;;;;;1999.90;999.90;;;20.80;99.90;;;;;;5084917;28;20433;-72
2023/09/18 00:17:21;;;;;;;1999.90;999.90;;;20.80;99.90;;;;;;5088241;28;20436;-74
2023/09/18 00:19:47;;;;;;;1999.90;999.90;;;20.80;99.90;;;;;;5088670;28;20430;-72
2023/09/18 00:22:14;;;;;;;1999.90;999.90;;;20.80;99.90;;;;;;5090197;28;20422;-72
2023/09/18 00:24:41;;;;;;;1999.90;999.90;;;20.80;99.90;;;;;;5089898;28;20453;-72
2023/09/18 00:27:08;;;;;;;1999.90;999.90;;;20.50;99.90;;;;;;5088940;28;20510;-72
2023/09/18 00:29:34;;;;;;;1999.90;999.90;;;20.30;99.90;;;;;;5089043;28;20938;-71
2023/09/18 00:32:01;;;;;;;1999.90;999.90;;;20.20;99.90;;;;;;5089864;28;20426;-71
2023/09/18 00:34:31;;;;;;;1999.90;999.90;;;20.10;99.90;;;;;;5089166;28;20433;-73
2023/09/18 00:36:58;;;;;;;1999.90;999.90;;;20.10;99.90;;;;;;5088400;28;20491;-70
2023/09/18 00:39:25;;;;;;;1999.90;999.90;;;20.10;99.90;;;;;;5088078;28;20434;-72
2023/09/18 00:41:54;;;;;;;1999.90;999.90;;;20.20;99.90;;;;;;5084513;28;20480;-72
2023/09/18 00:44:20;;;;;;;1999.90;999.90;;;20.60;99.90;;;;;;5090611;28;20426;-72
2023/09/18 00:46:47;;;;;;;1999.90;999.90;;;20.40;99.90;;;;;;5088739;28;20433;-70
2023/09/18 00:49:15;;;;;;;1999.90;999.90;;;20.50;99.90;;;;;;5089863;28;20422;-72
2023/09/18 00:51:44;;;;;;;1999.90;999.90;;;20.30;99.90;;;;;;5089584;28;20421;-72
2023/09/18 00:54:11;;;;;;;1999.90;999.90;;;20.10;99.90;;;;;;5089078;28;20440;-72
2023/09/18 00:56:38;;;;;;;1999.90;999.90;;;20.10;99.90;;;;;;5088594;28;20436;-71
2023/09/18 00:59:05;;;;;;;1999.90;999.90;;;20.10;99.90;;;;;;5090021;28;20429;-73
2023/09/18 01:01:33;;;;;;;1999.90;999.90;;;20.00;99.90;;;;;;5089353;28;20643;-71
2023/09/18 01:04:01;;;;;;;1999.90;999.90;;;19.80;99.90;;;;;;5088951;28;20807;-71
2023/09/18 01:06:30;;;;;;;1999.90;999.90;;;19.60;99.90;;;;;;5089164;28;20516;-72
2023/09/18 01:08:59;;;;;;;1999.90;999.90;;;19.50;99.90;;;;;;5089132;28;20434;-72
2023/09/18 01:11:31;;;;;;;1999.90;999.90;;;19.60;99.90;;;;;;5087378;28;20436;-74
2023/09/18 01:14:05;;;;;;;1999.90;999.90;;;19.30;99.90;;;;;;5087928;28;20430;-73
2023/09/18 01:16:39;;;;;;;1999.90;999.90;;;19.30;99.90;;;;;;5088408;28;20421;-73
2023/09/18 01:19:06;;;;;;;1999.90;999.90;;;19.30;99.90;;;;;;5089193;28;20421;-69
2023/09/18 01:21:32;;;;;;;1999.90;999.90;;;19.30;99.90;;;;;;5089394;28;20433;-71
2023/09/18 01:24:00;;;;;;;1999.90;999.90;;;19.10;99.90;;;;;;5088688;28;20422;-72
2023/09/18 01:26:27;;;;;;;1999.90;999.90;;;19.20;99.90;;;;;;5089006;28;20429;-71
2023/09/18 01:28:56;;;;;;;1999.90;999.90;;;19.20;99.90;;;;;;5088398;28;20515;-71
2023/09/18 01:31:23;;;;;;;1999.90;999.90;;;19.30;99.90;;;;;;5088342;28;20429;-73
2023/09/18 01:33:50;;;;;;;1999.90;999.90;;;19.20;99.90;;;;;;5088657;28;20434;-71
2023/09/18 01:36:19;;;;;;;1999.90;999.90;;;19.20;99.90;;;;;;5086889;28;20438;-72
2023/09/18 01:38:46;;;;;;;1999.90;999.90;;;19.20;99.90;;;;;;5089348;28;20433;-72
2023/09/18 01:41:14;;;;;;;1999.90;999.90;;;19.00;99.90;;;;;;5090382;28;20434;-72
2023/09/18 01:43:41;;;;;;;1999.90;999.90;;;18.80;99.90;;;;;;5088886;28;20432;-72
2023/09/18 01:46:08;;;;;;;1999.90;999.90;;;18.70;99.90;;;;;;5088965;28;20426;-70
2023/09/18 01:48:35;;;;;;;1999.90;999.90;;;18.80;99.90;;;;;;5088767;28;20432;-72
2023/09/18 01:51:02;;;;;;;1999.90;999.90;;;19.00;99.90;;;;;;5087983;28;20437;-70
2023/09/18 01:53:29;;;;;;;1999.90;999.90;;;18.90;99.90;;;;;;5088035;28;20436;-72
2023/09/18 01:55:56;;;;;;;1999.90;999.90;;;19.00;99.90;;;;;;5082825;28;20441;-72
2023/09/18 01:58:24;;;;;;;1999.90;999.90;;;19.00;99.90;;;;;;5088863;28;20441;-72
2023/09/18 02:00:51;;;;;;;1999.90;999.90;;;19.10;99.90;;;;;;5088951;28;20444;-72
2023/09/18 02:03:20;;;;;;;1999.90;999.90;;;19.10;99.90;;;;;;5087467;28;20422;-70
2023/09/18 02:05:47;;;;;;;1999.90;999.90;;;19.10;99.90;;;;;;5087712;28;20509;-73
2023/09/18 02:08:13;;;;;;;1999.90;999.90;;;19.00;99.90;;;;;;5088931;28;20807;-72
2023/09/18 02:10:40;;;;;;;1999.90;999.90;;;19.00;99.90;;;;;;5087341;28;20517;-72
2023/09/18 02:13:07;;;;;;;1999.90;999.90;;;19.30;99.90;;;;;;5087205;28;20447;-71
2023/09/18 02:15:38;;;;;;;1999.90;999.90;;;19.70;99.90;;;;;;5088119;28;20441;-71
2023/09/18 02:18:05;;;;;;;1999.90;999.90;;;20.00;99.90;;;;;;5088466;28;20516;-71
2023/09/18 02:20:32;;;;;;;1999.90;999.90;;;20.00;99.90;;;;;;5089579;28;20460;-72
2023/09/18 02:22:58;;;;;;;1999.90;999.90;;;20.00;99.90;;;;;;5088061;28;20422;-72
2023/09/18 02:25:26;;;;;;;1999.90;999.90;;;20.00;99.90;;;;;;5087597;28;20458;-70
2023/09/18 02:27:54;;;;;;;1999.90;999.90;;;19.80;99.90;;;;;;5086487;28;20421;-72
2023/09/18 02:30:20;;;;;;;1999.90;999.90;;;19.70;99.90;;;;;;5090203;28;20429;-72
2023/09/18 02:32:49;;;;;;;1999.90;999.90;;;19.60;99.90;;;;;;5087846;28;20919;-71
2023/09/18 02:35:15;;;;;;;1999.90;999.90;;;19.60;99.90;;;;;;5088476;28;20430;-71
2023/09/18 02:37:42;;;;;;;1999.90;999.90;;;19.50;99.90;;;;;;5089847;28;20805;-72
2023/09/18 02:40:10;;;;;;;1999.90;999.90;;;19.50;99.90;;;;;;5091853;28;20940;-72
2023/09/18 02:42:37;;;;;;;1999.90;999.90;;;19.50;99.90;;;;;;5090925;28;20434;-70
2023/09/18 02:45:04;;;;;;;1999.90;999.90;;;19.70;99.90;;;;;;5090890;28;20422;-71
2023/09/18 02:47:32;;;;;;;1999.90;999.90;;;19.80;99.90;;;;;;5090139;28;20433;-72
2023/09/18 02:50:00;;;;;;;1999.90;999.90;;;19.90;99.90;;;;;;5092631;28;20510;-72
2023/09/18 02:52:26;;;;;;;1999.90;999.90;;;20.10;99.90;;;;;;5091962;28;20422;-72
2023/09/18 02:54:53;;;;;;;1999.90;999.90;;;20.20;99.90;;;;;;5090894;28;20432;-72
2023/09/18 02:57:20;;;;;;;1999.90;999.90;;;20.40;99.90;;;;;;5091686;28;20429;-72
2023/09/18 02:59:47;;;;;;;1999.90;999.90;;;20.50;99.90;;;;;;5092065;28;20437;-70
2023/09/18 03:02:14;;;;;;;1999.90;999.90;;;20.60;99.90;;;;;;5091250;28;20457;-72
2023/09/18 03:04:41;;;;;;;1999.90;999.90;;;20.60;99.90;;;;;;5091797;28;20564;-72
2023/09/18 03:07:09;;;;;;;1999.90;999.90;;;20.60;99.90;;;;;;5091399;28;20496;-70
2023/09/18 03:09:36;;;;;;;1999.90;999.90;;;20.60;99.90;;;;;;5090725;28;20940;-69
2023/09/18 03:12:02;;;;;;;1999.90;999.90;;;20.60;99.90;;;;;;5091178;28;20425;-71
2023/09/18 03:14:29;;;;;;;1999.90;999.90;;;20.50;99.90;;;;;;5091678;28;20437;-71
2023/09/18 03:16:56;;;;;;;1999.90;999.90;;;20.50;99.90;;;;;;5091050;28;20432;-70
2023/09/18 03:19:24;;;;;;;1999.90;999.90;;;20.50;99.90;;;;;;5091561;28;20426;-72
2023/09/18 03:21:51;;;;;;;1999.90;999.90;;;20.70;99.90;;;;;;5091918;28;20418;-74
2023/09/18 03:24:19;;;;;;;1999.90;999.90;;;20.40;99.90;;;;;;5089713;28;20437;-69
2023/09/18 03:26:46;;;;;;;1999.90;999.90;;;20.40;99.90;;;;;;5091574;28;20430;-70
2023/09/18 03:29:12;;;;;;;1999.90;999.90;;;20.40;99.90;;;;;;5092329;28;20491;-72
2023/09/18 03:31:39;;;;;;;1999.90;999.90;;;20.40;99.90;;;;;;5091040;28;20460;-74
2023/09/18 03:34:06;;;;;;;1999.90;999.90;;;20.40;99.90;;;;;;5090844;28;20948;-71
2023/09/18 03:36:33;;;;;;;1999.90;999.90;;;20.50;99.90;;;;;;5091166;28;20436;-71
2023/09/18 03:38:59;;;;;;;1999.90;999.90;;;20.70;99.90;;;;;;5089919;28;20426;-70
2023/09/18 03:41:27;;;;;;;1999.90;999.90;;;20.70;99.90;;;;;;5090920;28;20429;-72
2023/09/18 03:43:54;;;;;;;1999.90;999.90;;;20.80;99.90;;;;;;5087087;28;20428;-71
2023/09/18 03:46:21;;;;;;;1999.90;999.90;;;20.80;99.90;;;;;;5091477;28;20426;-72
2023/09/18 03:48:48;;;;;;;1999.90;999.90;;;20.90;99.90;;;;;;5090281;28;20659;-70
2023/09/18 03:51:15;;;;;;;1999.90;999.90;;;21.00;99.90;;;;;;5090712;28;20448;-72
2023/09/18 03:53:42;;;;;;;1999.90;999.90;;;21.00;99.90;;;;;;5089486;28;20983;-70
2023/09/18 03:56:09;;;;;;;1999.90;999.90;;;21.10;99.90;;;;;;5090888;28;20922;-72
2023/09/18 03:58:37;;;;;;;1999.90;999.90;;;21.00;99.90;;;;;;5090812;28;20543;-70
2023/09/18 04:01:04;;;;;;;1999.90;999.90;;;21.00;99.90;;;;;;5089294;28;20434;-70
2023/09/18 04:03:31;;;;;;;1999.90;999.90;;;21.00;99.90;;;;;;5090481;28;21150;-72
2023/09/18 04:05:57;;;;;;;1999.90;999.90;;;21.00;99.90;;;;;;5091007;28;20430;-73
2023/09/18 04:08:24;;;;;;;1999.90;999.90;;;21.00;99.90;;;;;;5087480;28;20802;-72
2023/09/18 04:10:51;;;;;;;1999.90;999.90;;;21.00;99.90;;;;;;5090930;28;20430;-69
2023/09/18 04:13:17;;;;;;;1999.90;999.90;;;20.90;99.90;;;;;;5090384;28;20421;-72
2023/09/18 04:15:46;;;;;;;1999.90;999.90;;;20.90;99.90;;;;;;5089953;28;20429;-72
2023/09/18 04:18:12;;;;;;;1999.90;999.90;;;20.90;99.90;;;;;;5090137;28;20426;-71
2023/09/18 04:20:39;;;;;;;1999.90;999.90;;;20.90;99.90;;;;;;5090477;28;20769;-72
2023/09/18 04:23:20;;;;;;;1999.90;999.90;;;20.90;99.90;;;;;;5088159;28;20431;-72
2023/09/18 04:25:47;;;;;;;1999.90;999.90;;;20.90;99.90;;;;;;5089618;28;20429;-72
2023/09/18 04:28:13;;;;;;;1999.90;999.90;;;20.80;99.90;;;;;;5089593;28;20430;-72
2023/09/18 04:30:40;;;;;;;1999.90;999.90;;;21.20;99.90;;;;;;5089686;28;20424;-71
2023/09/18 04:33:08;;;;;;;1999.90;999.90;;;20.90;99.90;;;;;;5089447;28;20427;-72
2023/09/18 04:35:36;;;;;;;1999.90;999.90;;;20.90;99.90;;;;;;5089777;28;20440;-71
2023/09/18 04:38:03;;;;;;;1999.90;999.90;;;20.90;99.90;;;;;;5088743;28;20434;-71
2023/09/18 04:40:32;;;;;;;1999.90;999.90;;;20.90;99.90;;;;;;5089131;28;20434;-70
2023/09/18 04:42:59;;;;;;;1999.90;999.90;;;20.90;99.90;;;;;;5090349;28;20425;-71
2023/09/18 04:45:26;;;;;;;1999.90;999.90;;;21.00;99.90;;;;;;5088753;28;20430;-72
2023/09/18 04:47:52;;;;;;;1999.90;999.90;;;21.00;99.90;;;;;;5089404;28;20911;-71
2023/09/18 04:50:21;;;;;;;1999.90;999.90;;;21.00;99.90;;;;;;5089559;28;20440;-70
2023/09/18 04:52:47;;;;;;;1999.90;999.90;;;21.00;99.90;;;;;;5087642;28;20425;-71
2023/09/18 04:55:15;;;;;;;1999.90;999.90;;;21.00;99.90;;;;;;5089737;28;20429;-73
2023/09/18 04:57:42;;;;;;;1999.90;999.90;;;21.00;99.90;;;;;;5087906;28;20460;-74
2023/09/18 05:00:12;;;;;;;1999.90;999.90;;;21.40;99.90;;;;;;5089047;28;20426;-72
2023/09/18 05:02:39;;;;;;;1999.90;999.90;;;21.10;99.90;;;;;;5089070;28;20826;-71
2023/09/18 05:05:08;;;;;;;1999.90;999.90;;;21.20;99.90;;;;;;5089825;28;20452;-73
2023/09/18 05:07:36;;;;;;;1999.90;999.90;;;21.20;99.90;;;;;;5087895;28;20433;-72
2023/09/18 05:10:05;;;;;;;1999.90;999.90;;;21.30;99.90;;;;;;5087864;28;20479;-69
2023/09/18 05:12:32;;;;;;;1999.90;999.90;;;21.30;99.90;;;;;;5087453;28;20891;-71
2023/09/18 05:14:59;;;;;;;1999.90;999.90;;;21.40;99.90;;;;;;5088721;28;20426;-71
2023/09/18 05:17:42;;;;;;;1999.90;999.90;;;21.40;99.90;;;;;;5089086;28;20433;-70
2023/09/18 05:20:11;;;;;;;1999.90;999.90;;;21.40;99.90;;;;;;5083541;28;20919;-70
2023/09/18 05:22:39;;;;;;;1999.90;999.90;;;21.40;99.90;;;;;;5089231;28;20425;-72
2023/09/18 05:25:06;;;;;;;1999.90;999.90;;;21.40;99.90;;;;;;5093171;28;20443;-72
2023/09/18 05:27:33;;;;;;;1999.90;999.90;;;21.40;99.90;;;;;;5089138;28;20443;-72
2023/09/18 05:30:00;;;;;;;1999.90;999.90;;;21.40;99.90;;;;;;5088191;28;20436;-73
2023/09/18 05:32:27;;;;;;;1999.90;999.90;;;21.40;99.90;;;;;;5088314;28;20784;-74
2023/09/18 05:34:53;;;;;;;1999.90;999.90;;;21.40;99.90;;;;;;5088852;28;20445;-71
2023/09/18 05:37:20;;;;;;;1999.90;999.90;;;21.50;99.90;;;;;;5089776;28;20425;-71
2023/09/18 05:39:48;;;;;;;1999.90;999.90;;;21.30;99.90;;;;;;5089600;28;20938;-70
2023/09/18 05:42:15;;;;;;;1999.90;999.90;;;21.30;99.90;;;;;;5088776;28;20430;-72
2023/09/18 05:44:42;;;;;;;1999.90;999.90;;;21.40;99.90;;;;;;5088420;28;20429;-74
2023/09/18 05:47:09;;;;;;;1999.90;999.90;;;21.50;99.90;;;;;;5089312;28;20891;-75
2023/09/18 05:49:36;;;;;;;1999.90;999.90;;;21.40;99.90;;;;;;5085614;28;20907;-74
2023/09/18 05:52:03;;;;;;;1999.90;999.90;;;21.50;99.90;;;;;;5085621;28;21105;-73
2023/09/18 05:54:30;;;;;;;1999.90;999.90;;;21.50;99.90;;;;;;5086835;28;20996;-74
2023/09/18 05:56:58;;;;;;;1999.90;999.90;;;21.60;99.90;;;;;;5086971;28;20426;-74
2023/09/18 05:59:25;;;;;;;1999.90;999.90;;;21.70;99.90;;;;;;5089176;28;20428;-74
2023/09/18 06:01:53;;;;;;;1999.90;999.90;;;22.00;99.90;;;;;;5086137;28;20437;-77
2023/09/18 06:04:21;;;;;;;1999.90;999.90;;;22.20;99.90;;;;;;5084166;28;20919;-73
2023/09/18 06:06:48;;;;;;;1999.90;999.90;;;22.40;99.90;;;;;;5088675;28;20475;-76
2023/09/18 06:09:14;;;;;;;1999.90;999.90;;;22.60;99.90;;;;;;5089029;28;20432;-72
2023/09/18 06:11:41;;;;;;;1999.90;999.90;;;22.80;99.90;;;;;;5091355;28;20942;-74
2023/09/18 06:14:10;;;;;;;1999.90;999.90;;;23.00;99.90;;;;;;5092978;28;20421;-69
2023/09/18 06:16:37;;;;;;;1999.90;999.90;;;23.00;99.90;;;;;;5089257;28;20429;-72
2023/09/18 06:19:04;;;;;;;1999.90;999.90;;;23.10;99.90;;;;;;5091196;28;20429;-71
2023/09/18 06:21:31;;;;;;;1999.90;999.90;;;23.20;99.90;;;;;;5090339;28;20437;-72
2023/09/18 06:23:58;;;;;;;1999.90;999.90;;;23.10;99.90;;;;;;5086535;28;20450;-72
2023/09/18 06:26:24;;;;;;;1999.90;999.90;;;23.60;99.90;;;;;;5092129;28;20433;-73
2023/09/18 06:28:52;;;;;;;1999.90;999.90;;;23.20;99.90;;;;;;5092110;28;20431;-73
2023/09/18 06:31:20;;;;;;;1999.90;999.90;;;23.20;99.90;;;;;;5092998;28;20855;-72
2023/09/18 06:33:47;;;;;;;1999.90;999.90;;;23.20;99.90;;;;;;5092757;28;20433;-73
2023/09/18 06:36:14;;;;;;;1999.90;999.90;;;23.60;99.90;;;;;;5093513;28;20931;-72
2023/09/18 06:38:41;;;;;;;1999.90;999.90;;;23.20;99.90;;;;;;5091086;28;20869;-72
2023/09/18 06:41:08;;;;;;;1999.90;999.90;;;23.20;99.90;;;;;;5092210;28;20426;-73
2023/09/18 06:43:34;;;;;;;1999.90;999.90;;;23.20;99.90;;;;;;5092349;28;20422;-72
2023/09/18 06:46:01;;;;;;;1999.90;999.90;;;23.10;99.90;;;;;;5093970;28;20406;-72
2023/09/18 06:48:32;;;;;;;1999.90;999.90;;;23.10;99.90;;;;;;5093629;28;20428;-76
2023/09/18 06:51:00;;;;;;;1999.90;999.90;;;23.20;99.90;;;;;;5093425;28;20916;-73
2023/09/18 06:53:27;;;;;;;1999.90;999.90;;;23.20;99.90;;;;;;5093172;28;20426;-73
2023/09/18 06:55:54;;;;;;;1999.90;999.90;;;23.20;99.90;;;;;;5083249;28;20507;-72
2023/09/18 06:58:21;;;;;;;1999.90;999.90;;;23.20;99.90;;;;;;5091995;28;20433;-72
2023/09/18 07:00:50;;;;;;;1999.90;999.90;;;23.20;99.90;;;;;;5091511;28;20433;-70
2023/09/18 07:03:17;;;;;;;1999.90;999.90;;;23.20;99.90;;;;;;5092417;28;20433;-69
2023/09/18 07:05:46;;;;;;;1999.90;999.90;;;23.10;99.90;;;;;;5091964;28;21032;-72
2023/09/18 07:08:13;;;;;;;1999.90;999.90;;;23.30;99.90;;;;;;5092285;28;20483;-72
2023/09/18 07:10:40;;;;;;;1999.90;999.90;;;23.10;99.90;;;;;;5087600;28;20430;-72
2023/09/18 07:13:07;;;;;;;1999.90;999.90;;;23.10;99.90;;;;;;5087035;28;20520;-73
2023/09/18 07:15:34;;;;;;;1999.90;999.90;;;23.00;99.90;;;;;;5090825;28;20433;-71
2023/09/18 07:18:01;;;;;;;1999.90;999.90;;;22.90;99.90;;;;;;5095096;28;20429;-73
2023/09/18 07:20:28;;;;;;;1999.90;999.90;;;22.80;99.90;;;;;;5102944;28;20961;-72
2023/09/18 07:22:56;;;;;;;1999.90;999.90;;;22.70;99.90;;;;;;5085511;28;20437;-73
2023/09/18 07:25:23;;;;;;;1999.90;999.90;;;22.60;99.90;;;;;;5091636;28;20509;-72
2023/09/18 07:27:49;;;;;;;1999.90;999.90;;;22.60;99.90;;;;;;5091373;28;20437;-72
2023/09/18 07:30:19;;;;;;;1999.90;999.90;;;22.60;99.90;;;;;;5091927;28;20430;-74
2023/09/18 07:32:46;;;;;;;1999.90;999.90;;;22.90;99.90;;;;;;5088843;28;20441;-72
2023/09/18 07:35:14;;;;;;;1999.90;999.90;;;22.70;99.90;;;;;;5092291;28;20929;-72
2023/09/18 07:37:41;;;;;;;1999.90;999.90;;;22.70;99.90;;;;;;5089363;28;20503;-73
2023/09/18 07:40:10;;;;;;;1999.90;999.90;;;22.70;99.90;;;;;;5089854;28;20431;-71
2023/09/18 07:42:37;;;;;;;1999.90;999.90;;;22.80;99.90;;;;;;5091254;28;20898;-74
2023/09/18 07:45:04;;;;;;;1999.90;999.90;;;22.80;99.90;;;;;;5090559;28;20860;-70
2023/09/18 07:47:31;;;;;;;1999.90;999.90;;;22.90;99.90;;;;;;5098786;28;20787;-73
2023/09/18 07:49:58;;;;;;;1999.90;999.90;;;23.00;99.90;;;;;;5091449;28;20845;-72
2023/09/18 07:52:25;;;;;;;1999.90;999.90;;;23.10;99.90;;;;;;5091404;28;20437;-72
2023/09/18 07:54:51;;;;;;;1999.90;999.90;;;23.20;99.90;;;;;;5092029;28;20437;-73
2023/09/18 07:57:22;;;;;;;1999.90;999.90;;;23.60;99.90;;;;;;5090171;28;20441;-71
2023/09/18 07:59:49;;;;;;;1999.90;999.90;;;23.30;99.90;;;;;;5094105;28;20492;-72
2023/09/18 08:02:17;;;;;;;1999.90;999.90;;;23.40;99.90;;;;;;5090374;28;20828;-74
2023/09/18 08:04:44;;;;;;;1999.90;999.90;;;23.40;99.90;;;;;;5090710;28;20426;-72
2023/09/18 08:07:12;;;;;;;1999.90;999.90;;;23.40;99.90;;;;;;5091971;28;20442;-75
2023/09/18 08:09:39;;;;;;;1999.90;999.90;;;23.60;99.90;;;;;;5085642;28;20968;-72
2023/09/18 08:12:07;;;;;;;1999.90;999.90;;;23.40;99.90;;;;;;5087731;28;20579;-72
2023/09/18 08:14:36;;;;;;;1999.90;999.90;;;23.40;99.90;;;;;;5087483;28;20937;-71
2023/09/18 08:17:04;;;;;;;1999.90;999.90;;;23.20;99.90;;;;;;5085822;28;20420;-71
2023/09/18 08:19:32;;;;;;;1999.90;999.90;;;23.10;99.90;;;;;;5081972;28;20427;-72
2023/09/18 08:22:00;;;;;;;1999.90;999.90;;;23.20;99.90;;;;;;5089634;28;20441;-70
2023/09/18 08:24:27;;;;;;;1999.90;999.90;;;23.10;99.90;;;;;;5089017;28;20488;-72
2023/09/18 08:26:55;;;;;;;1999.90;999.90;;;23.10;99.90;;;;;;5089256;28;20426;-73
2023/09/18 08:29:22;;;;;;;1999.90;999.90;;;23.10;99.90;;;;;;5088462;28;20796;-72
2023/09/18 08:31:51;;;;;;;1999.90;999.90;;;23.10;99.90;;;;;;5091832;28;20955;-72
2023/09/18 08:34:18;;;;;;;1999.90;999.90;;;23.10;99.90;;;;;;5091737;28;20845;-72
2023/09/18 08:36:44;;;;;;;1999.90;999.90;;;23.30;99.90;;;;;;5092829;28;20426;-72
2023/09/18 08:39:12;;;;;;;1999.90;999.90;;;23.40;99.90;;;;;;5094637;28;20433;-72
2023/09/18 08:41:42;;;;;;;1999.90;999.90;;;23.50;99.90;;;;;;5093569;28;20410;-72
2023/09/18 08:44:09;;;;;;;1999.90;999.90;;;23.60;99.90;;;;;;5088185;28;20439;-72
2023/09/18 08:46:37;;;;;;;1999.90;999.90;;;23.40;99.90;;;;;;5090028;28;20485;-72
2023/09/18 08:49:06;;;;;;;1999.90;999.90;;;23.50;99.90;;;;;;5093117;28;20424;-70
2023/09/18 08:51:34;;;;;;;1999.90;999.90;;;23.60;99.90;;;;;;5090663;28;20437;-72
2023/09/18 08:54:02;;;;;;;1999.90;999.90;;;23.70;99.90;;;;;;5089991;28;20426;-73
2023/09/18 08:56:31;;;;;;;1999.90;999.90;;;23.70;99.90;;;;;;5092609;28;20437;-73
2023/09/18 08:58:59;;;;;;;1999.90;999.90;;;23.80;99.90;;;;;;5092277;28;20406;-72
2023/09/18 09:01:26;;;;;;;1999.90;999.90;;;23.80;99.90;;;;;;5092276;28;20453;-72
2023/09/18 09:03:53;;;;;;;1999.90;999.90;;;23.70;99.90;;;;;;5090998;28;20402;-73
2023/09/18 09:06:21;;;;;;;1999.90;999.90;;;23.60;99.90;;;;;;5090542;28;20430;-74
2023/09/18 09:08:48;;;;;;;1999.90;999.90;;;24.00;99.90;;;;;;5092174;28;20430;-74
2023/09/18 09:11:15;;;;;;;1999.90;999.90;;;23.70;99.90;;;;;;5092794;28;20433;-72
2023/09/18 09:13:41;;;;;;;1999.90;999.90;;;23.80;99.90;;;;;;5093019;28;20452;-72
2023/09/18 09:16:12;;;;;;;1999.90;999.90;;;23.80;99.90;;;;;;5092893;28;20931;-75
2023/09/18 09:18:48;;;;;;;1999.90;999.90;;;24.20;99.90;;;;;;5092375;28;20405;-72
2023/09/18 09:21:16;;;;;;;1999.90;999.90;;;24.10;99.90;;;;;;5089686;28;20430;-72
2023/09/18 09:23:51;;;;;;;1999.90;999.90;;;24.10;99.90;;;;;;5091683;28;20484;-71
2023/09/18 09:26:19;;;;;;;1999.90;999.90;;;24.20;99.90;;;;;;5090967;28;20895;-71
2023/09/18 09:28:48;;;;;;;1999.90;999.90;;;24.20;99.90;;;;;;5090568;28;20441;-72
2023/09/18 09:31:25;;;;;;;1999.90;999.90;;;24.20;99.90;;;;;;5094239;28;20410;-72
2023/09/18 09:33:54;;;;;;;1999.90;999.90;;;24.70;99.90;;;;;;5094150;28;20935;-72
2023/09/18 09:36:21;;;;;;;1999.90;999.90;;;24.60;99.90;;;;;;5096613;28;20433;-72
2023/09/18 09:38:55;;;;;;;1999.90;999.90;;;24.90;99.90;;;;;;5091755;28;20434;-75
2023/09/18 09:41:22;;;;;;;1999.90;999.90;;;25.00;99.90;;;;;;5094674;28;20410;-72
2023/09/18 09:43:49;;;;;;;1999.90;999.90;;;25.00;99.90;;;;;;5092160;28;20412;-72
2023/09/18 09:46:18;;;;;;;1999.90;999.90;;;25.10;99.90;;;;;;5094832;28;20413;-73
2023/09/18 09:49:01;;;;;;;1999.90;999.90;;;24.90;99.90;;;;;;5097721;28;20491;-72
2023/09/18 09:51:28;;;;;;;1999.90;999.90;;;25.10;99.90;;;;;;5098030;28;20429;-73
2023/09/18 09:53:58;;;;;;;1999.90;999.90;;;25.10;99.90;;;;;;5099722;28;20949;-74
2023/09/18 09:56:41;;;;;;;1999.90;999.90;;;25.20;99.90;;;;;;5097596;28;20433;-72
2023/09/18 09:59:08;;;;;;;1999.90;999.90;;;25.20;99.90;;;;;;5095539;28;20410;-72
2023/09/18 10:01:35;;;;;;;1999.90;999.90;;;24.90;99.90;;;;;;5095080;28;20496;-74
2023/09/18 10:04:07;;;;;;;1999.90;999.90;;;24.90;99.90;;;;;;5095341;28;20410;-72
2023/09/18 10:06:35;;;;;;;1999.90;999.90;;;24.90;99.90;;;;;;5095006;28;20433;-71
2023/09/18 10:09:05;;;;;;;1999.90;999.90;;;24.90;99.90;;;;;;5093814;28;20433;-71
2023/09/18 10:11:36;;;;;;;1999.90;999.90;;;24.80;99.90;;;;;;5093336;28;20454;-73
2023/09/18 10:14:10;;;;;;;1999.90;999.90;;;24.80;99.90;;;;;;5097765;28;20439;-72
2023/09/18 10:16:39;;;;;;;1999.90;999.90;;;24.90;99.90;;;;;;5088823;28;20412;-72
2023/09/18 10:19:15;;;;;;;1999.90;999.90;;;25.10;99.90;;;;;;5089354;28;20409;-73
2023/09/18 10:21:50;;;;;;;1999.90;999.90;;;25.40;99.90;;;;;;5093996;28;20414;-73
2023/09/18 10:24:24;;;;;;;1999.90;999.90;;;25.40;99.90;;;;;;5089893;28;20417;-72
2023/09/18 10:26:56;;;;;;;1999.90;999.90;;;25.30;99.90;;;;;;5092435;28;20911;-72
2023/09/18 10:29:24;;;;;;;1999.90;999.90;;;25.00;99.90;;;;;;5096604;28;20433;-70
2023/09/18 10:31:53;;;;;;;1999.90;999.90;;;24.90;99.90;;;;;;5091909;28;20430;-72
2023/09/18 10:34:20;;;;;;;1999.90;999.90;;;25.30;99.90;;;;;;5093678;28;20502;-73
2023/09/18 10:36:49;;;;;;;1999.90;999.90;;;25.10;99.90;;;;;;5093711;28;20428;-72
2023/09/18 10:39:19;;;;;;;1999.90;999.90;;;25.40;99.90;;;;;;5094064;28;20433;-72
2023/09/18 10:41:49;;;;;;;1999.90;999.90;;;24.80;99.90;;;;;;5093597;28;20413;-72
2023/09/18 10:44:17;;;;;;;1999.90;999.90;;;24.70;99.90;;;;;;5093410;28;20452;-74
2023/09/18 10:46:44;;;;;;;1999.90;999.90;;;24.70;99.90;;;;;;5093653;28;20413;-73
2023/09/18 10:49:11;;;;;;;1999.90;999.90;;;24.50;99.90;;;;;;5091680;28;20430;-72
2023/09/18 10:51:42;;;;;;;1999.90;999.90;;;24.50;99.90;;;;;;5092010;28;20534;-71
2023/09/18 10:54:09;;;;;;;1999.90;999.90;;;24.60;99.90;;;;;;5091510;28;20980;-73
2023/09/18 10:56:36;;;;;;;1999.90;999.90;;;24.80;99.90;;;;;;5092386;28;20438;-70
2023/09/18 10:59:09;;;;;;;1999.90;999.90;;;24.90;99.90;;;;;;5090777;28;20429;-73
2023/09/18 11:01:37;;;;;;;1999.90;999.90;;;25.10;99.90;;;;;;5091655;28;20481;-71
2023/09/18 11:04:08;;;;;;;1999.90;999.90;;;25.20;99.90;;;;;;5092972;28;21197;-72
2023/09/18 11:07:03;;;;;;;1999.90;999.90;;;25.20;99.90;;;;;;5093440;28;20416;-73
2023/09/18 11:09:31;;;;;;;1999.90;999.90;;;24.50;99.90;;;;;;5092410;28;20428;-70
2023/09/18 11:12:04;;;;;;;1999.90;999.90;;;24.40;99.90;;;;;;5088923;28;20463;-72
2023/09/18 11:14:45;;;;;;;1999.90;999.90;;;24.30;99.90;;;;;;5090084;28;20434;-74
2023/09/18 11:17:30;;;;;;;1999.90;999.90;;;24.30;99.90;;;;;;5086426;28;20487;-71
2023/09/18 11:20:08;;;;;;;1999.90;999.90;;;24.20;99.90;;;;;;5087027;28;20514;-71
2023/09/18 11:22:36;;;;;;;1999.90;999.90;;;24.10;99.90;;;;;;5088200;28;20436;-69
2023/09/18 11:25:38;;;;;;;1999.90;999.90;;;24.10;99.90;;;;;;5089097;28;20459;-74
2023/09/18 11:28:07;;;;;;;1999.90;999.90;;;24.40;99.90;;;;;;5089140;28;20452;-71
2023/09/18 11:30:37;;;;;;;1999.90;999.90;;;24.50;99.90;;;;;;5089759;28;20513;-70
2023/09/18 11:33:05;;;;;;;1999.90;999.90;;;24.60;99.90;;;;;;5092018;28;20471;-71
2023/09/18 11:35:33;;;;;;;1999.90;999.90;;;24.50;99.90;;;;;;5089848;28;20436;-71
2023/09/18 11:38:08;;;;;;;1999.90;999.90;;;24.40;99.90;;;;;;5088624;28;20433;-71
2023/09/18 11:40:39;;;;;;;1999.90;999.90;;;24.20;99.90;;;;;;5088376;28;20422;-74
2023/09/18 11:43:26;;;;;;;1999.90;999.90;;;24.00;99.90;;;;;;5089583;28;20421;-71
2023/09/18 11:45:56;;;;;;;1999.90;999.90;;;24.00;99.90;;;;;;5085896;28;20957;-75
2023/09/18 11:48:27;;;;;;;1999.90;999.90;;;24.10;99.90;;;;;;5087213;28;20807;-74
2023/09/18 11:50:54;;;;;;;1999.90;999.90;;;24.10;99.90;;;;;;5091372;28;20852;-71
2023/09/18 11:53:21;;;;;;;1999.90;999.90;;;24.10;99.90;;;;;;5089659;28;20437;-73
2023/09/18 11:55:48;;;;;;;1999.90;999.90;;;24.20;99.90;;;;;;5090195;28;20420;-71
2023/09/18 11:58:15;;;;;;;1999.90;999.90;;;24.20;99.90;;;;;;5089861;28;20430;-71
2023/09/18 12:00:49;;;;;;;1999.90;999.90;;;24.40;99.90;;;;;;5090564;28;20803;-72
2023/09/18 12:03:23;;;;;;;1999.90;999.90;;;24.30;99.90;;;;;;5090731;28;20518;-73